Impacts TAF Board INFO
FOR SITUATIONAL AWARENESS. NOT TO BE USED FOR FLIGHT PLANNING PURPOSES.
IDs:

KBWI - Baltimore-Washington, MD, US

Issued at 2056 UTC 19 Jan 2018
Updated at 2112 UTC 19 Jan 2018
Potential Impact None Slight Moderate High
Time2054Z 19/22Z 19/23Z 20/00Z 20/01Z 20/02Z 20/03Z 20/04Z 20/05Z 20/06Z 20/07Z 20/08Z 20/09Z 20/10Z>>
Type OBS PRVL PRVL PRVL PRVL PRVL PRVL PRVL PRVL PRVL PRVL PRVL PRVL PRVL
VIS 10 >6 >6 >6 >6 >6 >6 >6 >6 >6 >6 >6 >6 >6
CIG -- -- -- -- -- -- -- -- -- -- -- -- -- --
Cover SCT FEW FEW FEW FEW FEW FEW FEW FEW FEW FEW FEW FEW FEW
FltCat VFR VFR VFR VFR VFR VFR VFR VFR VFR VFR VFR VFR VFR VFR
WX -- -- -- -- -- -- -- -- -- -- -- -- -- --
WDir 270 220 220 220 220 220 220 220 220 220 220 220 220 220
WSpd 5 6 6 6 6 6 6 6 6 6 6 6 6 6
WGst -- -- -- -- -- -- -- -- -- -- -- -- -- --

Raw TAF
KBWI 192056Z 1921/2024 22006KT P6SM FEW250

Raw METAR
KBWI 192054Z 27005KT 10SM FEW160 SCT250 11/M11 A3003 RMK AO2 SLP169 T01061106 55009
KBWI 191954Z 20007KT 10SM FEW160 FEW250 10/M10 A3003 RMK AO2 SLP169 T01001100
KBWI 191854Z 25009KT 10SM FEW160 FEW250 10/M10 A3004 RMK AO2 SLP172 T01001100

METAR Board
Radar Display
Forecast Discussion

FOR SITUATIONAL AWARENESS. NOT TO BE USED FOR FLIGHT PLANNING PURPOSES.